This is the latest recevied weather packets stored in our database for station/object KG4QXL-1. If no packets are shown the sender has not sent any weather packets the latest 10 day(s).
| Time | Temp. | Humidity | Pressure | Rain* | Wind** | Luminosity | Snow |
|---|---|---|---|---|---|---|---|
| 1777965356 | 8.33° C | 94% | 1018.7 hPa | 0 mm | - | 0 W/m² | - |
| 1777963557 | 8.33° C | 93% | 1018.7 hPa | 0 mm | - | 0 W/m² | - |
| 1777959957 | 9.44° C | 89% | 1018.8 hPa | 0 mm | - | 0 W/m² | - |
| 1777959356 | 10° C | 89% | 1018.7 hPa | 0 mm | - | 0 W/m² | - |
| 1777956356 | 10.56° C | 87% | 1018.7 hPa | 0 mm | - | 0 W/m² | - |
| 1777955757 | 10.56° C | 88% | 1018.7 hPa | 0 mm | - | 0 W/m² | - |
| 1777948556 | 13.89° C | 75% | 1018.4 hPa | 0 mm | - | 0 W/m² | - |
| 1777944377 | 17.22° C | 62% | 1017.7 hPa | 0 mm | - | 0 W/m² | - |
| 1777943156 | 17.22° C | 61% | 1017 hPa | 0 mm | - | 0 W/m² | - |
| 1777941958 | 18.33° C | 59% | 1016.5 hPa | 0 mm | - | 0 W/m² | - |
| 1777941356 | 18.33° C | 58% | 1016.5 hPa | 0 mm | - | 0 W/m² | - |
| 1777940776 | 18.89° C | 57% | 1016.6 hPa | 0 mm | - | 0 W/m² | - |
| 1777938358 | 20° C | 54% | 1015.8 hPa | 0 mm | - | 10 W/m² | - |
| 1777937758 | 19.44° C | 54% | 1016 hPa | 0 mm | - | 14 W/m² | - |
| 1777935358 | 21.67° C | 46% | 1016 hPa | 0 mm | - | 22 W/m² | - |
| 1777934158 | 22.22° C | 41% | 1015.7 hPa | 0 mm | - | 95 W/m² | - |
| 1777932958 | 22.78° C | 41% | 1015.2 hPa | 0 mm | - | 89 W/m² | - |
| 1777929978 | 25° C | 37% | 1014.6 hPa | 0 mm | - | 292 W/m² | - |
| 1777928158 | 25° C | 35% | 1014.5 hPa | 0 mm | - | 372 W/m² | - |
| 1777924558 | 24.44° C | 36% | 1015.2 hPa | 0 mm | - | 285 W/m² | - |
| 1777923378 | 23.33° C | 36% | 1015.4 hPa | 0 mm | - | 166 W/m² | - |
| 1777922178 | 24.44° C | 33% | 1015.6 hPa | 0 mm | - | 626 W/m² | - |
| 1777921558 | 25.56° C | 32% | 1015.5 hPa | 0 mm | - | 404 W/m² | - |
| 1777910758 | 21.67° C | 38% | 1017 hPa | 0 mm | - | 761 W/m² | - |
| 1777910158 | 21.11° C | 38% | 1017.2 hPa | 0 mm | - | 693 W/m² | - |
* Rain latest hour (hover to see other rain measurements)
** Current wind speed in m/s (hover to see current wind gust speed)